Dixie, Mississippi
Current Conditions -  °F | °C
As of 1:53 PM on Friday 21 Nov 2014 (Local Time) from KHBG Reporting Station
Few Clouds Few Clouds  
Wind Chill: 71°   Ceiling: Unl
Heat Index: 71°   Visibility: 10mi
Dew Point: 43°   Wind: 12mph
Humidity: 36%   Direction: 100°E
Pressure: 30.27"   Gusts: NA
Location:  31.1996°N, 89.2694°W
Report Text: KHBG 211953Z AUTO 10010KT 10SM FEW060 22/06 A3027 RMK AO2 SLP249 T02170061
Loading
Personal Weather Stations






























Interactive Weather Map New forecast layout! Learn more

10-Day Weather Forecast

Advertisements
Track Severe Weather on mobile